createdAt,value
2023-01-19T00:00:04.173Z,165.000000
2023-01-19T00:01:00.702Z,165.000000
2023-01-19T00:02:00.735Z,200.000000
2023-01-19T00:03:00.727Z,200.000000
2023-01-19T00:04:00.863Z,160.000000
2023-01-19T00:05:04.867Z,160.000000
2023-01-19T00:06:00.798Z,155.000000
2023-01-19T00:07:00.724Z,155.000000
2023-01-19T00:08:01.266Z,155.000000
2023-01-19T00:09:00.701Z,297.500000
2023-01-19T00:10:04.003Z,297.500000
2023-01-19T00:11:00.735Z,297.500000
2023-01-19T00:12:00.828Z,212.500000
2023-01-19T00:13:01.133Z,212.500000
2023-01-19T00:14:00.826Z,225.000000
2023-01-19T00:15:04.929Z,225.000000
2023-01-19T00:16:00.902Z,257.500000
2023-01-19T00:17:00.783Z,257.500000
2023-01-19T00:18:00.851Z,257.500000
2023-01-19T00:19:00.805Z,110.000000
2023-01-19T00:20:04.069Z,110.000000
2023-01-19T00:21:00.807Z,110.000000
2023-01-19T00:22:00.934Z,307.500000
2023-01-19T00:23:01.207Z,307.500000
2023-01-19T00:24:00.899Z,307.500000
2023-01-19T00:25:04.980Z,77.500000
2023-01-19T00:26:00.893Z,77.500000
2023-01-19T00:27:00.856Z,140.000000
2023-01-19T00:28:01.879Z,140.000000
2023-01-19T00:29:00.869Z,152.500000
2023-01-19T00:30:04.409Z,152.500000
2023-01-19T00:31:00.916Z,152.500000
2023-01-19T00:32:00.965Z,272.500000
2023-01-19T00:33:01.361Z,272.500000
2023-01-19T00:34:00.994Z,272.500000
2023-01-19T00:35:05.130Z,152.500000
2023-01-19T00:36:00.980Z,152.500000
2023-01-19T00:37:00.954Z,157.500000
2023-01-19T00:38:01.024Z,157.500000
2023-01-19T00:39:00.950Z,232.500000
2023-01-19T00:40:04.295Z,232.500000
2023-01-19T00:41:00.952Z,232.500000
2023-01-19T00:42:01.048Z,180.000000
2023-01-19T00:43:01.459Z,180.000000
2023-01-19T00:44:01.039Z,180.000000
2023-01-19T00:45:05.129Z,127.500000
2023-01-19T00:46:01.127Z,127.500000
2023-01-19T00:47:00.995Z,182.500000
2023-01-19T00:48:01.067Z,182.500000
2023-01-19T00:49:01.040Z,182.500000
2023-01-19T00:50:06.016Z,172.500000
2023-01-19T00:51:01.037Z,172.500000
2023-01-19T01:01:01.275Z,210.000000
2023-01-19T01:02:01.878Z,230.000000
2023-01-19T01:03:01.556Z,230.000000
2023-01-19T01:04:01.179Z,230.000000
2023-01-19T01:05:05.296Z,200.000000
2023-01-19T01:06:01.697Z,200.000000
2023-01-19T01:07:01.151Z,175.000000
2023-01-19T01:08:01.665Z,175.000000
2023-01-19T01:09:01.175Z,175.000000
2023-01-19T01:10:05.992Z,180.000000
2023-01-19T01:11:01.196Z,180.000000
2023-01-19T01:12:01.749Z,155.000000
2023-01-19T01:13:20.888Z,155.000000
2023-01-19T01:14:01.725Z,155.000000
2023-01-19T01:15:04.595Z,147.500000
2023-01-19T01:16:01.781Z,147.500000
2023-01-19T01:17:00.220Z,147.500000
2023-01-19T01:18:00.339Z,160.000000
2023-01-19T01:19:00.237Z,160.000000
2023-01-19T01:20:04.614Z,170.000000
2023-01-19T01:21:00.256Z,170.000000
2023-01-19T01:22:00.340Z,177.500000
2023-01-19T01:23:00.715Z,177.500000
2023-01-19T01:24:00.414Z,177.500000
2023-01-19T01:25:04.439Z,175.000000
2023-01-19T01:26:00.360Z,175.000000
2023-01-19T01:27:00.296Z,140.000000
2023-01-19T01:28:00.786Z,140.000000
2023-01-19T01:29:00.303Z,140.000000
2023-01-19T01:30:04.802Z,175.000000
2023-01-19T01:31:00.310Z,175.000000
2023-01-19T01:32:00.815Z,170.000000
2023-01-19T01:33:00.672Z,170.000000
2023-01-19T01:34:00.380Z,170.000000
2023-01-19T01:35:03.350Z,165.000000
2023-01-19T01:36:00.812Z,165.000000
2023-01-19T01:37:00.341Z,145.000000
2023-01-19T01:38:00.423Z,145.000000
2023-01-19T01:39:00.369Z,145.000000
2023-01-19T01:40:04.731Z,117.500000
2023-01-19T01:41:00.395Z,117.500000
2023-01-19T01:42:00.487Z,175.000000
2023-01-19T01:43:00.727Z,175.000000
2023-01-19T01:44:00.804Z,175.000000
2023-01-19T01:45:05.179Z,142.500000
2023-01-19T01:46:00.608Z,142.500000
2023-01-19T01:47:00.450Z,142.500000
2023-01-19T01:48:00.569Z,165.000000
2023-01-19T01:49:00.457Z,165.000000
2023-01-19T01:50:03.937Z,165.000000
2023-01-19T01:51:00.479Z,152.500000
2023-01-19T01:52:00.551Z,152.500000
2023-01-19T01:53:06.310Z,167.500000
2023-01-19T01:54:00.585Z,167.500000
2023-01-19T01:55:04.610Z,172.500000
2023-01-19T01:56:00.585Z,172.500000
2023-01-19T01:57:00.514Z,172.500000
2023-01-19T01:58:00.745Z,170.000000
2023-01-19T01:59:00.509Z,170.000000
2023-01-19T02:00:03.968Z,145.000000
2023-01-19T02:01:00.708Z,145.000000
2023-01-19T02:02:00.900Z,145.000000
2023-01-19T02:03:00.999Z,190.000000
2023-01-19T02:04:00.680Z,190.000000
2023-01-19T02:05:04.717Z,177.500000
2023-01-19T02:06:00.804Z,177.500000
2023-01-19T02:07:00.574Z,177.500000
2023-01-19T02:08:00.670Z,280.000000
2023-01-19T02:09:00.601Z,280.000000
2023-01-19T02:10:03.949Z,280.000000
2023-01-19T02:11:00.645Z,200.000000
2023-01-19T02:12:00.687Z,200.000000
2023-01-19T02:13:01.010Z,167.500000
2023-01-19T02:14:00.754Z,167.500000
2023-01-19T02:15:04.872Z,167.500000
2023-01-19T02:16:00.704Z,147.500000
2023-01-19T02:17:00.742Z,147.500000
2023-01-19T02:18:00.739Z,137.500000
2023-01-19T02:19:00.655Z,137.500000
2023-01-19T02:20:03.996Z,137.500000
2023-01-19T02:21:00.680Z,147.500000
2023-01-19T02:22:00.751Z,147.500000
2023-01-19T02:23:01.117Z,167.500000
2023-01-19T02:24:00.757Z,167.500000
2023-01-19T02:25:04.827Z,167.500000
2023-01-19T02:26:00.778Z,130.000000
2023-01-19T02:27:00.710Z,130.000000
2023-01-19T02:28:00.789Z,130.000000
2023-01-19T02:29:00.769Z,130.000000
2023-01-19T02:30:05.112Z,130.000000
2023-01-19T02:31:00.723Z,177.500000
2023-01-19T02:32:00.791Z,177.500000
2023-01-19T02:33:01.147Z,177.500000
2023-01-19T02:34:00.804Z,192.500000
2023-01-19T02:35:04.982Z,192.500000
2023-01-19T02:36:00.829Z,175.000000
2023-01-19T02:37:00.774Z,175.000000
2023-01-19T02:38:00.828Z,185.000000
2023-01-19T02:39:00.787Z,185.000000
2023-01-19T02:40:06.172Z,177.500000
2023-01-19T02:41:00.804Z,177.500000
2023-01-19T02:42:00.866Z,177.500000
2023-01-19T02:43:01.407Z,162.500000
2023-01-19T02:44:00.892Z,162.500000
2023-01-19T02:45:09.615Z,162.500000
2023-01-19T02:46:00.911Z,90.000000
2023-01-19T02:47:00.850Z,90.000000
2023-01-19T02:48:00.898Z,187.500000
2023-01-19T02:49:00.859Z,187.500000
2023-01-19T02:50:05.256Z,187.500000
2023-01-19T02:51:00.937Z,187.500000
2023-01-19T02:52:00.957Z,187.500000
2023-01-19T02:53:01.445Z,237.500000
2023-01-19T02:54:00.973Z,237.500000
2023-01-19T02:55:04.185Z,237.500000
2023-01-19T02:56:00.982Z,240.000000
2023-01-19T02:57:00.980Z,240.000000
2023-01-19T02:58:00.988Z,245.000000
2023-01-19T02:59:00.908Z,245.000000
2023-01-19T03:00:05.564Z,245.000000
2023-01-19T03:01:01.072Z,270.000000
2023-01-19T03:02:01.119Z,270.000000
2023-01-19T03:03:01.582Z,270.000000
2023-01-19T03:04:01.073Z,272.500000
2023-01-19T03:05:05.100Z,272.500000
2023-01-19T03:06:01.113Z,272.500000
2023-01-19T03:07:01.020Z,252.500000
2023-01-19T03:08:01.086Z,252.500000
2023-01-19T03:09:01.085Z,180.000000
2023-01-19T03:10:05.881Z,180.000000
2023-01-19T03:11:01.040Z,215.000000
2023-01-19T03:12:01.138Z,215.000000
2023-01-19T03:13:01.386Z,215.000000
2023-01-19T03:14:01.967Z,202.500000
2023-01-19T03:15:04.289Z,202.500000
2023-01-19T03:16:01.162Z,72.500000
2023-01-19T03:17:01.108Z,72.500000
2023-01-19T03:18:01.160Z,72.500000
2023-01-19T03:19:01.108Z,145.000000
2023-01-19T03:20:06.014Z,145.000000
2023-01-19T03:21:01.141Z,145.000000
2023-01-19T03:22:01.687Z,145.000000
2023-01-19T03:23:01.592Z,145.000000
2023-01-19T03:24:01.679Z,127.500000
2023-01-19T03:25:04.712Z,127.500000
2023-01-19T03:26:01.703Z,127.500000
2023-01-19T03:27:01.192Z,150.000000
2023-01-19T03:28:01.690Z,150.000000
2023-01-19T03:29:01.657Z,150.000000
2023-01-19T03:30:06.118Z,207.500000
2023-01-19T03:31:01.758Z,207.500000
2023-01-19T03:32:01.799Z,242.500000
2023-01-19T03:33:00.606Z,242.500000
2023-01-19T03:34:00.767Z,162.500000
2023-01-19T03:35:05.018Z,162.500000
2023-01-19T03:36:00.333Z,162.500000
2023-01-19T03:37:00.261Z,172.500000
2023-01-19T03:38:00.395Z,172.500000
2023-01-19T03:39:00.288Z,162.500000
2023-01-19T03:40:04.634Z,162.500000
2023-01-19T03:41:00.300Z,162.500000
2023-01-19T03:42:00.389Z,280.000000
2023-01-19T03:43:00.614Z,280.000000
2023-01-19T03:44:00.424Z,230.000000
2023-01-19T03:45:03.517Z,230.000000
2023-01-19T03:46:00.494Z,230.000000
2023-01-19T03:47:00.381Z,167.500000
2023-01-19T03:48:00.418Z,167.500000
2023-01-19T03:49:00.367Z,167.500000
2023-01-19T03:50:04.813Z,105.000000
2023-01-19T03:51:00.370Z,105.000000
2023-01-19T03:52:00.446Z,270.000000
2023-01-19T03:53:00.737Z,270.000000
2023-01-19T03:54:00.476Z,270.000000
2023-01-19T03:55:03.474Z,207.500000
2023-01-19T03:56:00.885Z,207.500000
2023-01-19T03:57:00.427Z,342.500000
2023-01-19T03:58:33.389Z,342.500000
2023-01-19T03:59:00.427Z,307.500000
2023-01-19T04:00:05.001Z,307.500000
2023-01-19T04:01:00.616Z,307.500000
2023-01-19T04:02:01.202Z,295.000000
2023-01-19T04:03:00.993Z,295.000000
2023-01-19T04:04:00.552Z,295.000000
2023-01-19T04:05:03.542Z,325.000000
2023-01-19T04:06:01.078Z,325.000000
2023-01-19T04:07:00.523Z,257.500000
2023-01-19T04:08:00.637Z,257.500000
2023-01-19T04:09:00.554Z,272.500000
2023-01-19T04:10:04.997Z,272.500000
2023-01-19T04:11:00.539Z,272.500000
2023-01-19T04:12:00.630Z,277.500000
2023-01-19T04:13:01.011Z,277.500000
2023-01-19T04:14:01.129Z,277.500000
2023-01-19T04:15:03.837Z,225.000000
2023-01-19T04:16:00.745Z,225.000000
2023-01-19T04:17:00.600Z,232.500000
2023-01-19T04:18:01.122Z,232.500000
2023-01-19T04:19:00.610Z,232.500000
2023-01-19T04:20:05.023Z,290.000000
2023-01-19T04:21:00.616Z,290.000000
2023-01-19T04:22:01.090Z,217.500000
2023-01-19T04:23:01.098Z,217.500000
2023-01-19T04:24:00.722Z,217.500000
2023-01-19T04:25:03.730Z,310.000000
2023-01-19T04:26:01.144Z,310.000000
2023-01-19T04:27:00.671Z,25.000000
2023-01-19T04:28:00.744Z,25.000000
2023-01-19T04:29:00.675Z,177.500000
2023-01-19T04:30:06.517Z,177.500000
2023-01-19T04:31:00.745Z,177.500000
2023-01-19T04:32:00.802Z,205.000000
2023-01-19T04:33:01.070Z,205.000000
2023-01-19T04:34:01.086Z,215.000000
2023-01-19T04:35:03.881Z,215.000000
2023-01-19T04:36:00.804Z,215.000000
2023-01-19T04:37:00.767Z,240.000000
2023-01-19T04:38:01.081Z,240.000000
2023-01-19T04:39:00.783Z,240.000000
2023-01-19T04:40:05.152Z,200.000000
2023-01-19T04:41:00.795Z,200.000000
2023-01-19T04:42:00.921Z,210.000000
2023-01-19T04:43:01.257Z,210.000000
2023-01-19T04:44:00.900Z,210.000000
2023-01-19T04:45:04.088Z,185.000000
2023-01-19T04:46:00.898Z,185.000000
2023-01-19T04:47:00.832Z,185.000000
2023-01-19T04:48:01.098Z,175.000000
2023-01-19T04:49:00.832Z,175.000000
2023-01-19T04:50:05.317Z,247.500000
2023-01-19T04:51:00.871Z,247.500000
2023-01-19T04:52:01.102Z,247.500000
2023-01-19T04:53:01.424Z,150.000000
2023-01-19T04:54:00.967Z,150.000000
2023-01-19T04:55:05.103Z,187.500000
2023-01-19T04:56:01.128Z,187.500000
2023-01-19T04:57:00.931Z,187.500000
2023-01-19T04:58:01.023Z,220.000000
2023-01-19T04:59:00.944Z,220.000000
2023-01-19T05:00:05.506Z,210.000000
2023-01-19T05:01:00.993Z,210.000000
2023-01-19T05:02:01.127Z,210.000000
2023-01-19T05:03:01.487Z,227.500000
2023-01-19T05:04:01.092Z,227.500000
2023-01-19T05:05:05.142Z,212.500000
2023-01-19T05:06:01.110Z,212.500000
2023-01-19T05:07:01.020Z,212.500000
2023-01-19T05:08:01.132Z,182.500000
2023-01-19T05:09:01.046Z,182.500000
2023-01-19T05:10:05.410Z,182.500000
2023-01-19T05:11:01.114Z,195.000000
2023-01-19T05:12:01.127Z,195.000000
2023-01-19T05:13:01.424Z,152.500000
2023-01-19T05:14:01.193Z,152.500000
2023-01-19T05:15:07.343Z,207.500000
2023-01-19T05:16:01.229Z,207.500000
2023-01-19T05:17:01.069Z,195.000000
2023-01-19T05:18:01.179Z,195.000000
2023-01-19T05:19:01.105Z,195.000000
2023-01-19T05:20:06.213Z,135.000000
2023-01-19T05:21:01.125Z,135.000000
2023-01-19T05:22:03.296Z,135.000000
2023-01-19T05:23:01.613Z,202.500000
2023-01-19T05:24:01.237Z,202.500000
2023-01-19T05:25:05.889Z,235.000000
2023-01-19T05:26:01.264Z,235.000000
2023-01-19T05:27:01.172Z,235.000000
2023-01-19T05:28:01.247Z,222.500000
2023-01-19T05:29:01.185Z,222.500000
2023-01-19T05:30:06.233Z,252.500000
2023-01-19T05:31:01.363Z,252.500000
2023-01-19T05:32:01.806Z,252.500000
2023-01-19T05:33:01.558Z,265.000000
2023-01-19T05:34:03.264Z,265.000000
2023-01-19T05:35:04.796Z,265.000000
2023-01-19T05:36:01.734Z,200.000000
2023-01-19T05:37:01.238Z,200.000000
2023-01-19T05:38:01.708Z,217.500000
2023-01-19T05:39:01.724Z,217.500000
2023-01-19T05:40:07.273Z,237.500000
2023-01-19T05:41:01.748Z,237.500000
2023-01-19T05:42:03.239Z,237.500000
2023-01-19T05:43:00.590Z,170.000000
2023-01-19T05:44:00.395Z,170.000000
2023-01-19T05:45:03.561Z,222.500000
2023-01-19T05:46:03.320Z,222.500000
2023-01-19T05:47:00.342Z,222.500000
2023-01-19T05:48:00.415Z,237.500000
2023-01-19T05:49:00.328Z,237.500000
2023-01-19T05:50:04.764Z,165.000000
2023-01-19T05:51:00.359Z,165.000000
2023-01-19T05:52:00.422Z,165.000000
2023-01-19T05:53:00.669Z,230.000000
2023-01-19T05:54:02.716Z,230.000000
2023-01-19T05:55:04.521Z,230.000000
2023-01-19T05:56:00.471Z,252.500000
2023-01-19T05:57:00.407Z,252.500000
2023-01-19T05:58:00.500Z,267.500000
2023-01-19T05:59:00.419Z,267.500000
2023-01-19T06:00:05.066Z,247.500000
2023-01-19T06:01:00.484Z,247.500000
2023-01-19T06:02:00.663Z,247.500000
2023-01-19T06:03:00.837Z,250.000000
2023-01-19T06:04:00.570Z,250.000000
2023-01-19T06:05:04.651Z,250.000000
2023-01-19T06:06:00.630Z,222.500000
2023-01-19T06:07:00.578Z,222.500000
2023-01-19T06:08:01.149Z,222.500000
2023-01-19T06:09:00.531Z,255.000000
2023-01-19T06:10:04.996Z,255.000000
2023-01-19T06:11:00.557Z,260.000000
2023-01-19T06:12:01.103Z,260.000000
2023-01-19T06:13:00.830Z,240.000000
2023-01-19T06:14:00.629Z,240.000000
2023-01-19T06:15:03.760Z,240.000000
2023-01-19T06:16:01.213Z,260.000000
2023-01-19T06:17:00.577Z,260.000000
2023-01-19T06:18:01.164Z,260.000000
2023-01-19T06:19:00.581Z,262.500000
2023-01-19T06:20:06.154Z,262.500000
2023-01-19T06:21:00.630Z,270.000000
2023-01-19T06:22:01.118Z,270.000000
2023-01-19T06:23:00.962Z,275.000000
2023-01-19T06:24:00.742Z,275.000000
2023-01-19T06:25:03.888Z,275.000000
2023-01-19T06:26:01.140Z,270.000000
2023-01-19T06:27:00.659Z,270.000000
2023-01-19T06:28:00.713Z,270.000000
2023-01-19T06:29:00.666Z,292.500000
2023-01-19T06:30:05.065Z,292.500000
2023-01-19T06:31:00.715Z,292.500000
2023-01-19T06:32:00.807Z,267.500000
2023-01-19T06:33:01.192Z,267.500000
2023-01-19T06:34:01.172Z,287.500000
2023-01-19T06:35:04.837Z,287.500000
2023-01-19T06:36:00.811Z,272.500000
2023-01-19T06:37:00.710Z,272.500000
2023-01-19T06:38:00.815Z,272.500000
2023-01-19T06:39:00.740Z,265.000000
2023-01-19T06:40:05.106Z,265.000000
2023-01-19T06:41:00.743Z,265.000000
2023-01-19T06:42:00.843Z,282.500000
2023-01-19T06:43:01.191Z,282.500000
2023-01-19T06:44:01.049Z,257.500000
2023-01-19T06:45:05.332Z,257.500000
2023-01-19T06:46:01.018Z,257.500000
2023-01-19T06:47:15.553Z,257.500000
2023-01-19T06:48:01.122Z,257.500000
2023-01-19T06:49:00.795Z,270.000000
2023-01-19T06:50:05.412Z,270.000000
2023-01-19T06:51:00.826Z,270.000000
2023-01-19T06:52:01.121Z,267.500000
2023-01-19T06:53:01.172Z,267.500000
2023-01-19T06:54:00.914Z,267.500000
2023-01-19T06:55:03.948Z,265.000000
2023-01-19T06:56:01.143Z,265.000000
2023-01-19T06:57:02.727Z,280.000000
2023-01-19T06:58:00.928Z,280.000000
2023-01-19T06:59:00.866Z,270.000000
2023-01-19T07:00:06.122Z,270.000000
2023-01-19T07:01:01.032Z,270.000000
2023-01-19T07:02:01.179Z,265.000000
2023-01-19T07:03:01.305Z,265.000000
2023-01-19T07:04:00.994Z,265.000000
2023-01-19T07:05:03.987Z,265.000000
2023-01-19T07:06:01.032Z,265.000000
2023-01-19T07:07:00.930Z,270.000000
2023-01-19T07:08:01.035Z,270.000000
2023-01-19T07:09:00.948Z,270.000000
2023-01-19T07:10:05.262Z,270.000000
2023-01-19T07:11:26.905Z,270.000000
2023-01-19T07:12:01.032Z,270.000000
2023-01-19T07:13:01.487Z,270.000000
2023-01-19T07:14:01.179Z,270.000000
2023-01-19T07:15:08.005Z,262.500000
2023-01-19T07:16:01.083Z,262.500000
2023-01-19T07:17:01.026Z,260.000000
2023-01-19T07:18:01.116Z,260.000000
2023-01-19T07:19:01.033Z,260.000000
2023-01-19T07:20:05.395Z,260.000000
2023-01-19T07:21:01.046Z,260.000000
2023-01-19T07:22:01.141Z,260.000000
2023-01-19T07:23:01.385Z,260.000000
2023-01-19T07:24:01.153Z,260.000000
2023-01-19T07:25:05.261Z,260.000000
2023-01-19T07:26:01.152Z,260.000000
2023-01-19T07:27:01.124Z,272.500000
2023-01-19T07:28:01.161Z,272.500000
2023-01-19T07:29:01.068Z,242.500000
2023-01-19T07:30:06.001Z,242.500000
2023-01-19T07:31:01.250Z,280.000000
2023-01-19T07:32:01.205Z,280.000000
2023-01-19T07:33:01.452Z,280.000000
2023-01-19T07:34:01.177Z,260.000000
2023-01-19T07:35:04.229Z,260.000000
2023-01-19T07:36:01.684Z,260.000000
2023-01-19T07:37:01.138Z,265.000000
2023-01-19T07:38:01.762Z,265.000000
2023-01-19T07:39:01.174Z,250.000000
2023-01-19T07:40:05.977Z,250.000000
2023-01-19T07:41:01.173Z,275.000000
2023-01-19T07:42:01.680Z,275.000000
2023-01-19T07:43:01.673Z,275.000000
2023-01-19T07:44:01.859Z,275.000000
2023-01-19T07:45:05.841Z,275.000000
2023-01-19T07:46:01.742Z,275.000000
2023-01-19T07:47:01.645Z,277.500000
2023-01-19T07:48:01.751Z,277.500000
2023-01-19T07:49:01.689Z,277.500000
2023-01-19T07:50:06.033Z,285.000000
2023-01-19T07:51:00.244Z,285.000000
2023-01-19T07:52:01.146Z,275.000000
2023-01-19T07:53:00.657Z,275.000000
2023-01-19T07:54:00.359Z,287.500000
2023-01-19T07:55:05.312Z,287.500000
2023-01-19T07:56:01.184Z,287.500000
2023-01-19T07:57:00.277Z,270.000000
2023-01-19T07:58:00.335Z,270.000000
2023-01-19T07:59:00.307Z,270.000000
2023-01-19T08:00:03.706Z,270.000000
2023-01-19T08:01:00.457Z,270.000000
2023-01-19T08:02:00.605Z,265.000000
2023-01-19T08:03:00.827Z,265.000000
2023-01-19T08:04:00.411Z,270.000000
2023-01-19T08:05:04.477Z,270.000000
2023-01-19T08:06:00.431Z,270.000000
2023-01-19T08:07:00.345Z,300.000000
2023-01-19T08:08:00.473Z,300.000000
2023-01-19T08:09:00.374Z,300.000000
2023-01-19T08:10:07.500Z,260.000000
2023-01-19T08:11:00.402Z,260.000000
2023-01-19T08:12:00.479Z,260.000000
2023-01-19T08:13:00.719Z,265.000000
2023-01-19T08:14:01.608Z,265.000000
2023-01-19T08:15:03.587Z,282.500000
2023-01-19T08:16:00.537Z,282.500000
2023-01-19T08:17:00.455Z,285.000000
2023-01-19T08:18:00.556Z,285.000000
2023-01-19T08:19:00.492Z,285.000000
2023-01-19T08:20:04.904Z,285.000000
2023-01-19T08:21:00.504Z,285.000000
2023-01-19T08:22:00.571Z,285.000000
2023-01-19T08:23:01.151Z,285.000000
2023-01-19T08:24:00.633Z,285.000000
2023-01-19T08:25:04.685Z,285.000000
2023-01-19T08:26:00.643Z,285.000000
2023-01-19T08:27:00.546Z,292.500000
2023-01-19T08:28:01.184Z,292.500000
2023-01-19T08:29:00.545Z,292.500000
2023-01-19T08:30:06.896Z,287.500000
2023-01-19T08:31:11.171Z,287.500000
2023-01-19T08:32:00.750Z,287.500000
2023-01-19T08:33:00.874Z,280.000000
2023-01-19T08:34:00.669Z,280.000000
2023-01-19T08:35:03.666Z,287.500000
2023-01-19T08:36:00.680Z,287.500000
2023-01-19T08:37:00.629Z,287.500000
2023-01-19T08:38:00.716Z,300.000000
2023-01-19T08:39:00.641Z,300.000000
2023-01-19T08:40:05.104Z,270.000000
2023-01-19T08:41:00.662Z,270.000000
2023-01-19T08:42:00.829Z,195.000000
2023-01-19T08:43:01.128Z,195.000000
2023-01-19T08:44:01.152Z,195.000000
2023-01-19T08:45:03.856Z,147.500000
2023-01-19T08:46:00.838Z,147.500000
2023-01-19T08:47:00.713Z,305.000000
2023-01-19T08:48:00.817Z,305.000000
2023-01-19T08:49:00.723Z,305.000000
2023-01-19T08:50:05.533Z,302.500000
2023-01-19T08:51:00.771Z,302.500000
2023-01-19T08:52:00.824Z,302.500000
2023-01-19T08:53:01.146Z,297.500000
2023-01-19T08:54:00.842Z,297.500000
2023-01-19T08:55:04.932Z,287.500000
2023-01-19T08:56:00.924Z,287.500000
2023-01-19T08:57:00.808Z,287.500000
2023-01-19T08:58:01.588Z,217.500000
2023-01-19T08:59:09.274Z,217.500000
2023-01-19T09:00:10.136Z,287.500000
2023-01-19T09:01:03.025Z,287.500000
2023-01-19T09:02:09.305Z,287.500000
2023-01-19T09:03:01.355Z,232.500000
2023-01-19T09:04:01.667Z,232.500000
2023-01-19T09:05:05.896Z,232.500000
2023-01-19T09:06:01.759Z,265.000000
2023-01-19T09:07:00.874Z,265.000000
2023-01-19T09:08:01.530Z,297.500000
2023-01-19T09:09:00.895Z,297.500000
2023-01-19T09:10:06.178Z,297.500000
2023-01-19T09:11:00.941Z,320.000000
2023-01-19T09:12:01.011Z,320.000000
2023-01-19T09:13:00.920Z,305.000000
2023-01-19T09:14:01.910Z,305.000000
2023-01-19T09:15:03.950Z,305.000000
2023-01-19T09:16:01.058Z,290.000000
2023-01-19T09:17:00.984Z,290.000000
2023-01-19T09:18:02.295Z,292.500000
2023-01-19T09:19:00.977Z,292.500000
2023-01-19T09:20:05.754Z,292.500000
2023-01-19T09:21:00.981Z,275.000000
2023-01-19T09:22:01.050Z,275.000000
2023-01-19T09:23:00.998Z,280.000000
2023-01-19T09:24:01.131Z,280.000000
2023-01-19T09:25:04.088Z,280.000000
2023-01-19T09:26:01.131Z,270.000000
2023-01-19T09:27:01.029Z,270.000000
2023-01-19T09:28:01.436Z,270.000000
2023-01-19T09:29:01.036Z,265.000000
2023-01-19T09:30:05.969Z,265.000000
2023-01-19T09:31:01.139Z,292.500000
2023-01-19T09:32:01.142Z,292.500000
2023-01-19T09:33:01.096Z,292.500000
2023-01-19T09:34:01.151Z,295.000000
2023-01-19T09:35:05.505Z,295.000000
2023-01-19T09:36:01.170Z,287.500000
2023-01-19T09:37:01.093Z,287.500000
2023-01-19T09:38:01.469Z,287.500000
2023-01-19T09:39:01.120Z,290.000000
2023-01-19T09:40:05.975Z,290.000000
2023-01-19T09:41:01.233Z,292.500000
2023-01-19T09:42:01.194Z,292.500000
2023-01-19T09:43:01.144Z,292.500000
2023-01-19T09:44:01.218Z,300.000000
2023-01-19T09:45:04.244Z,300.000000
2023-01-19T09:46:01.719Z,295.000000
2023-01-19T09:47:01.178Z,295.000000
2023-01-19T09:48:02.131Z,295.000000
2023-01-19T09:49:01.184Z,332.500000
2023-01-19T09:50:11.394Z,332.500000
2023-01-19T09:51:01.697Z,332.500000
2023-01-19T09:52:01.694Z,305.000000
2023-01-19T09:53:01.928Z,305.000000
2023-01-19T09:54:01.769Z,242.500000
2023-01-19T09:55:04.832Z,242.500000
2023-01-19T09:56:01.868Z,210.000000
2023-01-19T09:57:00.268Z,210.000000
2023-01-19T09:58:00.780Z,212.500000
2023-01-19T09:59:00.270Z,212.500000
2023-01-19T10:00:08.362Z,212.500000
2023-01-19T10:01:00.463Z,225.000000
2023-01-19T10:02:00.453Z,225.000000
2023-01-19T10:03:00.844Z,225.000000
2023-01-19T10:04:01.190Z,227.500000
2023-01-19T10:05:03.864Z,227.500000
2023-01-19T10:06:00.432Z,272.500000
2023-01-19T10:07:00.354Z,272.500000
2023-01-19T10:08:00.730Z,302.500000
2023-01-19T10:09:00.366Z,302.500000
2023-01-19T10:10:04.745Z,302.500000
2023-01-19T10:11:00.404Z,285.000000
2023-01-19T10:12:00.476Z,285.000000
2023-01-19T10:13:00.869Z,285.000000
2023-01-19T10:14:00.486Z,285.000000
2023-01-19T10:15:03.639Z,285.000000
2023-01-19T10:16:00.524Z,285.000000
2023-01-19T10:17:00.436Z,305.000000
2023-01-19T10:18:01.561Z,305.000000
2023-01-19T10:19:00.449Z,275.000000
2023-01-19T10:20:04.795Z,275.000000
2023-01-19T10:21:00.487Z,257.500000
2023-01-19T10:22:00.521Z,257.500000
2023-01-19T10:23:00.926Z,257.500000
2023-01-19T10:24:00.586Z,240.000000
2023-01-19T10:25:03.759Z,240.000000
2023-01-19T10:26:00.640Z,272.500000
2023-01-19T10:27:00.538Z,272.500000
2023-01-19T10:28:00.567Z,272.500000
2023-01-19T10:29:00.507Z,145.000000
2023-01-19T10:30:05.137Z,145.000000
2023-01-19T10:31:00.858Z,237.500000
2023-01-19T10:32:01.187Z,237.500000
2023-01-19T10:33:00.964Z,237.500000
2023-01-19T10:34:00.631Z,267.500000
2023-01-19T10:35:03.664Z,267.500000
2023-01-19T10:36:00.658Z,247.500000
2023-01-19T10:37:00.575Z,247.500000
2023-01-19T10:38:00.671Z,247.500000
2023-01-19T10:39:00.594Z,275.000000
2023-01-19T10:40:04.973Z,275.000000
2023-01-19T10:41:00.627Z,260.000000
2023-01-19T10:42:00.763Z,260.000000
2023-01-19T10:43:01.015Z,260.000000
2023-01-19T10:44:00.709Z,25.000000
2023-01-19T10:45:03.934Z,25.000000
2023-01-19T10:46:01.310Z,25.000000
2023-01-19T10:47:00.631Z,32.500000
2023-01-19T10:48:00.733Z,32.500000
2023-01-19T10:49:00.650Z,32.500000
2023-01-19T10:50:07.642Z,32.500000
2023-01-19T10:51:00.673Z,32.500000
2023-01-19T10:52:00.778Z,0.000000
2023-01-19T10:53:01.111Z,0.000000
2023-01-19T10:54:00.837Z,255.000000
2023-01-19T10:55:05.879Z,255.000000
2023-01-19T10:56:00.803Z,255.000000
2023-01-19T10:57:00.735Z,282.500000
2023-01-19T10:58:00.768Z,282.500000
2023-01-19T10:59:00.700Z,230.000000
2023-01-19T11:00:11.167Z,230.000000
2023-01-19T11:01:00.883Z,230.000000
2023-01-19T11:02:01.037Z,267.500000
2023-01-19T11:03:01.421Z,267.500000
2023-01-19T11:04:00.842Z,280.000000
2023-01-19T11:05:10.052Z,280.000000
2023-01-19T11:06:00.824Z,280.000000
2023-01-19T11:07:00.762Z,272.500000
2023-01-19T11:08:00.863Z,272.500000
2023-01-19T11:09:00.791Z,272.500000
2023-01-19T11:10:05.230Z,320.000000
2023-01-19T11:11:00.791Z,320.000000
2023-01-19T11:12:00.882Z,275.000000
2023-01-19T11:13:01.335Z,275.000000
2023-01-19T11:14:01.178Z,275.000000